Time;durP1;ratioP1;P1;durP2;ratioP2;P2;SDS_P1;SDS_P2;PMS_P1;PMS_P2;Temp;Humidity;BMP_temperature;BMP_pressure;BME280_temperature;BME280_humidity;BME280_pressure;Samples;Min_cycle;Max_cycle;Signal;HPM_P1;HPM_P2
2023/06/01 00:00:40;;;;;;;;;;;;;;;22.48;62.32;101455.16;5051037;28;19924;-87
2023/06/01 00:03:06;;;;;;;;;;;;;;;22.47;62.32;101458.69;5074037;28;19917;-87
2023/06/01 00:05:31;;;;;;;;;;;;;;;22.44;62.35;101456.00;5032349;28;19917;-87
2023/06/01 00:08:08;;;;;;;;;;;;;;;22.44;62.22;101459.53;5031457;28;19975;-88
2023/06/01 00:10:34;;;;;;;;;;;;;;;22.44;62.18;101454.22;5030805;28;20418;-87
2023/06/01 00:13:02;;;;;;;;;;;;;;;22.43;62.18;101464.84;5036280;28;19963;-89
2023/06/01 00:15:28;;;;;;;;;;;;;;;22.43;62.03;101460.41;5041182;28;19925;-88
2023/06/01 00:17:57;;;;;;;;;;;;;;;22.41;62.09;101451.50;5027211;28;19921;-88
2023/06/01 00:20:24;;;;;;;;;;;;;;;22.43;62.02;101457.75;5001726;28;19995;-88
2023/06/01 00:22:55;;;;;;;;;;;;;;;22.44;61.92;101456.00;5035056;28;19922;-89
2023/06/01 00:25:20;;;;;;;;;;;;;;;22.40;62.08;101457.69;5023304;28;19918;-88
2023/06/01 00:27:48;;;;;;;;;;;;;;;22.39;61.98;101453.22;5023979;28;19924;-88
2023/06/01 00:30:15;;;;;;;;;;;;;;;22.36;62.14;101443.44;5024595;28;20009;-87
2023/06/01 00:32:40;;;;;;;;;;;;;;;22.34;62.18;101446.94;5010314;28;20449;-86
2023/06/01 00:35:06;;;;;;;;;;;;;;;22.36;62.13;101450.53;5016116;28;19928;-88
2023/06/01 00:37:31;;;;;;;;;;;;;;;22.36;61.96;101447.88;5029046;28;20326;-88
2023/06/01 00:39:58;;;;;;;;;;;;;;;22.35;62.03;101443.41;5010178;28;19925;-87
2023/06/01 00:42:23;;;;;;;;;;;;;;;22.31;62.19;101455.78;5025883;28;19918;-87
2023/06/01 00:44:49;;;;;;;;;;;;;;;22.33;62.10;101455.78;5037608;28;20450;-89
2023/06/01 00:47:17;;;;;;;;;;;;;;;22.31;62.18;101449.56;5029719;28;20284;-87
2023/06/01 00:49:43;;;;;;;;;;;;;;;22.29;62.22;101449.53;5001775;28;20388;-88
2023/06/01 00:52:08;;;;;;;;;;;;;;;22.31;62.02;101442.47;5026197;28;19921;-88
2023/06/01 00:54:34;;;;;;;;;;;;;;;22.29;62.08;101441.56;5011199;28;20284;-88
2023/06/01 00:57:00;;;;;;;;;;;;;;;22.28;61.99;101442.41;5026657;28;19976;-88
2023/06/01 00:59:26;;;;;;;;;;;;;;;22.29;62.02;101438.00;5010711;28;20497;-89
2023/06/01 01:06:56;;;;;;;;;;;;;;;22.28;61.88;101433.53;5011222;28;19918;-88
2023/06/01 01:09:21;;;;;;;;;;;;;;;22.26;62.03;101445.94;5020302;28;19928;-88
2023/06/01 01:11:51;;;;;;;;;;;;;;;22.25;61.91;101438.81;5033188;28;20011;-88
2023/06/01 01:14:22;;;;;;;;;;;;;;;22.27;61.79;101439.75;5045634;28;19917;-88
2023/06/01 01:17:02;;;;;;;;;;;;;;;22.23;61.86;101443.22;5061348;28;20009;-89
2023/06/01 01:19:50;;;;;;;;;;;;;;;22.19;62.04;101436.91;5062245;28;19923;-89
2023/06/01 01:22:26;;;;;;;;;;;;;;;22.21;61.97;101443.16;5053419;28;19918;-88
2023/06/01 01:24:55;;;;;;;;;;;;;;;22.20;62.03;101443.13;5049106;28;19917;-89
2023/06/01 01:27:39;;;;;;;;;;;;;;;22.22;61.95;101441.38;5033725;28;20440;-88
2023/06/01 01:30:05;;;;;;;;;;;;;;;22.21;61.90;101443.16;5057655;28;19928;-88
2023/06/01 01:32:31;;;;;;;;;;;;;;;22.19;61.93;101450.22;5049785;28;19917;-89
2023/06/01 01:34:56;;;;;;;;;;;;;;;22.19;61.92;101446.66;5065879;28;20321;-88
2023/06/01 01:37:22;;;;;;;;;;;;;;;22.20;61.85;101437.81;5065696;28;20394;-88
2023/06/01 01:39:47;;;;;;;;;;;;;;;22.17;61.88;101446.63;5032293;28;20438;-88
2023/06/01 01:42:14;;;;;;;;;;;;;;;22.16;61.91;101440.44;5035884;28;19917;-88
2023/06/01 01:44:42;;;;;;;;;;;;;;;22.13;61.87;101435.03;5052174;28;19917;-88
2023/06/01 01:47:17;;;;;;;;;;;;;;;22.13;61.81;101437.69;5050165;28;20278;-89
2023/06/01 01:49:50;;;;;;;;;;;;;;;22.14;61.72;101446.59;5038236;28;20322;-90
2023/06/01 01:52:21;;;;;;;;;;;;;;;22.14;61.70;101442.16;5035481;28;19913;-91
2023/06/01 01:54:49;;;;;;;;;;;;;;;22.12;61.61;101448.34;5048226;28;19917;-90
2023/06/01 01:57:18;;;;;;;;;;;;;;;22.14;61.54;101455.47;5067404;28;19940;-90
2023/06/01 01:59:43;;;;;;;;;;;;;;;22.16;61.48;101445.75;5038348;28;19936;-89
2023/06/01 02:02:09;;;;;;;;;;;;;;;22.12;61.50;101451.88;5049127;28;20317;-87
2023/06/01 02:04:39;;;;;;;;;;;;;;;22.12;61.56;101443.00;5044144;28;20318;-88
2023/06/01 02:07:05;;;;;;;;;;;;;;;22.13;61.54;101444.78;5059409;28;19917;-88
2023/06/01 02:09:30;;;;;;;;;;;;;;;22.10;61.44;101447.41;5049532;28;19929;-88
2023/06/01 02:11:56;;;;;;;;;;;;;;;22.06;61.39;101445.56;5037359;28;19916;-88
2023/06/01 02:14:22;;;;;;;;;;;;;;;22.04;61.49;101444.63;5060229;28;19921;-89
2023/06/01 02:16:50;;;;;;;;;;;;;;;22.05;61.45;101449.97;5063811;28;19921;-89
2023/06/01 02:19:16;;;;;;;;;;;;;;;22.03;61.43;101451.69;5029720;28;20476;-89
2023/06/01 02:21:45;;;;;;;;;;;;;;;22.03;61.49;101448.16;5062379;28;19967;-88
2023/06/01 02:24:10;;;;;;;;;;;;;;;22.01;61.63;101444.56;5063694;28;20356;-88
2023/06/01 02:26:36;;;;;;;;;;;;;;;22.02;61.48;101459.66;5058153;28;19924;-89
2023/06/01 02:29:02;;;;;;;;;;;;;;;22.02;61.53;101463.22;5064920;28;19956;-88
2023/06/01 02:31:28;;;;;;;;;;;;;;;22.05;61.32;101452.63;5032581;28;20397;-88
2023/06/01 02:33:53;;;;;;;;;;;;;;;22.01;61.43;101450.78;5065528;28;19917;-89
2023/06/01 02:36:19;;;;;;;;;;;;;;;22.00;61.51;101448.09;5048490;28;20318;-87
2023/06/01 02:38:45;;;;;;;;;;;;;;;22.00;61.51;101451.66;5048977;28;19917;-89
2023/06/01 02:41:11;;;;;;;;;;;;;;;21.99;61.42;101463.16;5063728;28;19983;-88
2023/06/01 02:43:36;;;;;;;;;;;;;;;21.96;61.46;101456.00;5031628;28;20317;-88
2023/06/01 02:46:03;;;;;;;;;;;;;;;21.97;61.52;101459.59;5053733;28;20003;-88
2023/06/01 02:48:29;;;;;;;;;;;;;;;21.96;61.37;101456.00;5065996;28;19917;-89
2023/06/01 02:50:55;;;;;;;;;;;;;;;21.95;61.39;101451.59;5031890;28;19913;-88
2023/06/01 02:53:20;;;;;;;;;;;;;;;21.94;61.35;101455.09;5065540;28;19913;-89
2023/06/01 02:55:47;;;;;;;;;;;;;;;21.94;61.50;101451.53;5063267;28;19940;-89
2023/06/01 02:58:16;;;;;;;;;;;;;;;21.94;61.38;101451.53;5047634;28;19917;-90
2023/06/01 03:00:45;;;;;;;;;;;;;;;21.92;61.27;101453.28;5049078;28;20290;-91
2023/06/01 03:03:14;;;;;;;;;;;;;;;21.92;61.24;101458.59;5049692;28;19913;-89
2023/06/01 03:05:42;;;;;;;;;;;;;;;21.93;61.34;101463.94;5033779;28;20409;-89
2023/06/01 03:08:08;;;;;;;;;;;;;;;21.90;61.44;101463.88;5072037;28;19916;-89
2023/06/01 03:10:34;;;;;;;;;;;;;;;21.91;61.22;101460.38;5031683;28;19931;-89
2023/06/01 03:12:59;;;;;;;;;;;;;;;21.90;61.31;101461.22;5043884;28;20016;-87
2023/06/01 03:15:27;;;;;;;;;;;;;;;21.89;61.24;101462.09;5031999;28;19913;-86
2023/06/01 03:17:52;;;;;;;;;;;;;;;21.91;61.04;101464.81;5064253;28;19917;-85
2023/06/01 03:20:19;;;;;;;;;;;;;;;21.87;61.05;101474.47;5064863;28;19913;-87
2023/06/01 03:22:45;;;;;;;;;;;;;;;21.86;61.13;101483.31;5064850;28;19917;-87
2023/06/01 03:25:12;;;;;;;;;;;;;;;21.87;61.22;101481.56;5041414;28;20008;-84
2023/06/01 03:30:42;;;;;;;;;;;;;;;21.86;61.19;101479.75;5026123;28;19924;-88
2023/06/01 03:33:07;;;;;;;;;;;;;;;21.83;61.18;101483.25;5064324;28;19924;-88
2023/06/01 03:35:33;;;;;;;;;;;;;;;21.81;61.33;101479.66;5048093;28;20295;-87
2023/06/01 03:37:58;;;;;;;;;;;;;;;21.80;61.23;101483.22;5041915;28;19972;-85
2023/06/01 03:40:23;;;;;;;;;;;;;;;21.80;61.22;101488.53;5026129;28;20543;-86
2023/06/01 03:42:49;;;;;;;;;;;;;;;21.78;61.28;101489.34;5063367;28;20409;-86
2023/06/01 03:45:18;;;;;;;;;;;;;;;21.79;61.25;101492.03;5042690;28;20032;-87
2023/06/01 03:47:43;;;;;;;;;;;;;;;21.77;61.28;101500.84;5039979;28;20318;-87
2023/06/01 03:50:09;;;;;;;;;;;;;;;21.76;61.20;101497.31;5049837;28;19929;-87
2023/06/01 03:52:35;;;;;;;;;;;;;;;21.74;61.30;101493.72;5033673;28;19917;-87
2023/06/01 03:55:01;;;;;;;;;;;;;;;21.77;61.31;101496.44;5065629;28;19971;-87
2023/06/01 03:57:27;;;;;;;;;;;;;;;21.76;61.18;101497.31;5046588;28;19924;-86
2023/06/01 03:59:52;;;;;;;;;;;;;;;21.74;61.26;101496.38;5044180;28;20358;-86
2023/06/01 04:02:18;;;;;;;;;;;;;;;21.75;61.28;101499.03;5029978;28;19956;-86
2023/06/01 04:04:47;;;;;;;;;;;;;;;21.75;61.25;101493.72;5048968;28;19928;-86
2023/06/01 04:07:18;;;;;;;;;;;;;;;21.73;61.16;101503.44;5053040;28;19922;-85
2023/06/01 04:09:44;;;;;;;;;;;;;;;21.74;61.25;101501.69;5067582;28;19921;-86
2023/06/01 04:12:10;;;;;;;;;;;;;;;21.71;61.29;101497.19;5037285;28;19925;-87
2023/06/01 04:14:37;;;;;;;;;;;;;;;21.74;61.22;101491.06;5027617;28;19917;-87
2023/06/01 04:17:02;;;;;;;;;;;;;;;21.72;61.20;101490.13;5030626;28;19917;-87
2023/06/01 04:19:28;;;;;;;;;;;;;;;21.71;61.32;101493.66;5033745;28;19971;-87
2023/06/01 04:21:53;;;;;;;;;;;;;;;21.71;61.28;101498.97;5022394;28;20398;-87
2023/06/01 04:24:20;;;;;;;;;;;;;;;21.69;61.52;101490.94;5037368;28;19960;-86
2023/06/01 04:26:45;;;;;;;;;;;;;;;21.72;61.37;101495.44;5068086;28;19923;-86
2023/06/01 04:29:11;;;;;;;;;;;;;;;21.73;61.20;101494.56;5026892;28;19921;-86
2023/06/01 04:31:40;;;;;;;;;;;;;;;21.68;61.46;101493.59;5030189;28;19964;-86
2023/06/01 04:34:06;;;;;;;;;;;;;;;21.67;61.51;101498.00;5028545;28;20000;-86
2023/06/01 04:36:38;;;;;;;;;;;;;;;21.67;61.44;101503.31;5052129;28;20000;-85
2023/06/01 04:39:05;;;;;;;;;;;;;;;21.70;61.42;101503.38;5034884;28;20011;-86
2023/06/01 04:41:32;;;;;;;;;;;;;;;21.69;61.22;101496.25;5042481;28;20035;-87
2023/06/01 04:43:58;;;;;;;;;;;;;;;21.70;61.20;101503.38;5032459;28;19917;-86
2023/06/01 04:46:25;;;;;;;;;;;;;;;21.67;61.36;101502.41;5035194;28;19974;-87
2023/06/01 04:48:51;;;;;;;;;;;;;;;21.65;61.41;101499.75;5061221;28;21349;-86
2023/06/01 04:51:19;;;;;;;;;;;;;;;21.66;61.37;101511.28;5037505;28;19923;-87
2023/06/01 04:53:45;;;;;;;;;;;;;;;21.68;61.29;101515.75;5054648;28;19920;-87
2023/06/01 04:56:10;;;;;;;;;;;;;;;21.64;61.53;101508.59;5028125;28;20354;-87
2023/06/01 04:58:41;;;;;;;;;;;;;;;21.70;61.31;101510.47;5013368;28;19917;-92
2023/06/01 05:01:07;;;;;;;;;;;;;;;21.70;61.26;101506.06;5023855;28;19969;-84
2023/06/01 05:03:35;;;;;;;;;;;;;;;21.72;61.18;101511.41;5029326;28;20334;-85
2023/06/01 05:06:00;;;;;;;;;;;;;;;21.71;61.28;101512.25;5054927;28;20314;-84
2023/06/01 05:08:26;;;;;;;;;;;;;;;21.72;61.19;101517.59;5034861;28;19925;-85
2023/06/01 05:10:51;;;;;;;;;;;;;;;21.71;61.32;101522.88;5063159;28;19932;-84
2023/06/01 05:13:16;;;;;;;;;;;;;;;21.71;61.28;101517.56;5024200;28;20015;-86
2023/06/01 05:15:46;;;;;;;;;;;;;;;21.70;61.27;101515.78;5026396;28;20362;-85
2023/06/01 05:18:12;;;;;;;;;;;;;;;21.71;61.18;101518.47;5032268;28;19924;-84
2023/06/01 05:20:37;;;;;;;;;;;;;;;21.70;61.23;101519.34;5044433;28;19917;-84
2023/06/01 05:23:13;;;;;;;;;;;;;;;21.72;61.27;101514.06;5035211;28;20137;-84
2023/06/01 05:25:40;;;;;;;;;;;;;;;21.71;61.32;101520.22;5025860;28;19925;-85
2023/06/01 05:28:05;;;;;;;;;;;;;;;21.71;61.41;101518.47;5024288;28;19921;-86
2023/06/01 05:30:31;;;;;;;;;;;;;;;21.73;61.21;101515.84;5033872;28;19991;-84
2023/06/01 05:32:58;;;;;;;;;;;;;;;21.72;61.30;101519.38;5032676;28;19921;-85
2023/06/01 05:35:23;;;;;;;;;;;;;;;21.75;61.20;101517.66;5052069;28;21075;-85
2023/06/01 05:37:49;;;;;;;;;;;;;;;21.72;61.26;101520.28;5017403;28;19920;-85
2023/06/01 05:40:15;;;;;;;;;;;;;;;21.69;61.31;101519.31;5019051;28;20310;-85
2023/06/01 05:42:40;;;;;;;;;;;;;;;21.68;61.57;101525.50;5028697;28;19921;-84
2023/06/01 05:45:06;;;;;;;;;;;;;;;21.68;61.43;101523.72;5043263;28;19960;-84
2023/06/01 05:47:31;;;;;;;;;;;;;;;21.72;61.30;101530.00;5030616;28;19955;-85
2023/06/01 05:49:57;;;;;;;;;;;;;;;21.72;61.38;101525.59;5062499;28;19917;-84
2023/06/01 05:52:22;;;;;;;;;;;;;;;21.69;61.40;101521.97;5031023;28;20420;-84
2023/06/01 05:54:49;;;;;;;;;;;;;;;21.68;61.39;101526.38;5030397;28;19999;-85
2023/06/01 05:57:14;;;;;;;;;;;;;;;21.70;61.37;101529.09;5062743;28;19979;-85
2023/06/01 05:59:42;;;;;;;;;;;;;;;21.68;61.43;101525.50;5045589;28;20033;-85
2023/06/01 06:02:07;;;;;;;;;;;;;;;21.70;61.44;101531.75;5062445;28;19971;-86
2023/06/01 06:04:32;;;;;;;;;;;;;;;21.70;61.36;101523.78;5030446;28;19917;-85
2023/06/01 06:06:58;;;;;;;;;;;;;;;21.66;61.51;101529.88;5062751;28;19917;-85
2023/06/01 06:09:23;;;;;;;;;;;;;;;21.65;61.49;101531.66;5030372;28;19925;-86
2023/06/01 06:11:49;;;;;;;;;;;;;;;21.68;61.46;101533.47;5030812;28;20425;-86
2023/06/01 06:14:15;;;;;;;;;;;;;;;21.67;61.58;101534.31;5062485;28;20383;-87
2023/06/01 06:16:41;;;;;;;;;;;;;;;21.65;61.52;101533.38;5032278;28;19920;-87
2023/06/01 06:19:07;;;;;;;;;;;;;;;21.65;61.48;101534.31;5066051;28;20472;-87
2023/06/01 06:21:33;;;;;;;;;;;;;;;21.66;61.52;101537.84;5050156;28;19913;-87
2023/06/01 06:24:17;;;;;;;;;;;;;;;21.62;61.53;101539.53;5066009;28;20321;-87
2023/06/01 06:26:42;;;;;;;;;;;;;;;21.65;61.70;101541.38;5034236;28;19919;-86
2023/06/01 06:29:10;;;;;;;;;;;;;;;21.63;61.66;101548.41;5033854;28;19917;-85
2023/06/01 06:31:35;;;;;;;;;;;;;;;21.62;61.79;101550.19;5034221;28;19913;-84
2023/06/01 06:34:01;;;;;;;;;;;;;;;21.64;61.68;101551.13;5034029;28;19935;-85
2023/06/01 06:36:26;;;;;;;;;;;;;;;21.66;61.70;101553.81;5034380;28;19913;-84
2023/06/01 06:38:52;;;;;;;;;;;;;;;21.64;61.77;101553.78;5034243;28;20501;-83
2023/06/01 06:41:17;;;;;;;;;;;;;;;21.70;61.56;101561.00;5036984;28;20409;-84
2023/06/01 06:43:42;;;;;;;;;;;;;;;21.63;61.65;101559.03;5036503;28;19913;-87
2023/06/01 06:46:08;;;;;;;;;;;;;;;21.67;61.63;101566.22;5034034;28;19914;-87
2023/06/01 06:48:33;;;;;;;;;;;;;;;21.66;61.61;101565.34;5033569;28;19921;-85
2023/06/01 06:50:59;;;;;;;;;;;;;;;21.67;61.61;101563.56;5032657;28;19925;-86
2023/06/01 06:53:24;;;;;;;;;;;;;;;21.65;61.73;101559.97;5033657;28;19936;-87
2023/06/01 06:55:50;;;;;;;;;;;;;;;21.68;61.70;101562.72;5066240;28;19936;-83
2023/06/01 06:58:15;;;;;;;;;;;;;;;21.68;61.66;101560.06;5065633;28;20401;-84
2023/06/01 07:00:41;;;;;;;;;;;;;;;21.69;61.60;101552.09;5033643;28;20382;-86
2023/06/01 07:03:06;;;;;;;;;;;;;;;21.71;61.61;101557.44;5065644;28;20314;-84
2023/06/01 07:05:32;;;;;;;;;;;;;;;21.72;61.57;101554.81;5065591;28;19920;-85
2023/06/01 07:07:57;;;;;;;;;;;;;;;21.69;61.61;101554.75;5065352;28;20382;-84
2023/06/01 07:10:23;;;;;;;;;;;;;;;21.72;61.57;101557.50;5048634;28;19921;-85
2023/06/01 07:12:48;;;;;;;;;;;;;;;21.73;61.64;101558.38;5065287;28;19917;-85
2023/06/01 07:15:14;;;;;;;;;;;;;;;21.74;61.60;101557.53;5048557;28;20015;-87
2023/06/01 07:17:39;;;;;;;;;;;;;;;21.72;61.67;101546.84;5065649;28;20391;-87
2023/06/01 07:20:06;;;;;;;;;;;;;;;21.72;61.83;101557.50;5058889;28;20020;-87
2023/06/01 07:22:32;;;;;;;;;;;;;;;21.75;61.77;101559.31;5048479;28;19913;-86
2023/06/01 07:24:58;;;;;;;;;;;;;;;21.78;61.93;101553.16;5065011;28;20406;-86
2023/06/01 07:27:24;;;;;;;;;;;;;;;21.74;61.97;101557.53;5033060;28;19917;-85
2023/06/01 07:29:54;;;;;;;;;;;;;;;21.82;61.84;101565.66;5032805;28;19932;-86
2023/06/01 07:32:20;;;;;;;;;;;;;;;21.81;61.92;101558.56;5032935;28;19960;-86
2023/06/01 07:34:46;;;;;;;;;;;;;;;21.80;61.85;101562.06;5053741;28;20448;-86
2023/06/01 07:37:11;;;;;;;;;;;;;;;21.82;61.94;101565.66;5031002;28;19917;-86
2023/06/01 07:39:37;;;;;;;;;;;;;;;21.82;62.06;101557.66;5031689;28;19913;-86
2023/06/01 07:42:02;;;;;;;;;;;;;;;21.84;61.98;101561.25;5032653;28;20374;-86
2023/06/01 07:44:28;;;;;;;;;;;;;;;21.84;62.07;101553.28;5031872;28;19920;-86
2023/06/01 07:46:54;;;;;;;;;;;;;;;21.84;62.07;101556.81;5031627;28;20382;-86
2023/06/01 07:49:19;;;;;;;;;;;;;;;21.88;61.92;101549.81;5032181;28;20015;-86
2023/06/01 07:51:44;;;;;;;;;;;;;;;21.84;62.07;101551.50;5064739;28;20375;-86
2023/06/01 07:54:10;;;;;;;;;;;;;;;21.89;62.02;101541.88;5032619;28;20348;-85
2023/06/01 07:56:36;;;;;;;;;;;;;;;21.89;62.19;101546.31;5064354;28;20353;-85
2023/06/01 07:59:01;;;;;;;;;;;;;;;21.85;62.14;101540.03;5032448;28;19913;-84
2023/06/01 08:01:27;;;;;;;;;;;;;;;21.85;62.25;101536.47;5034663;28;20015;-86
2023/06/01 08:03:52;;;;;;;;;;;;;;;21.88;62.28;101531.19;5031152;28;19913;-86
2023/06/01 08:06:18;;;;;;;;;;;;;;;21.89;62.29;101531.25;5032093;28;20314;-86
2023/06/01 08:08:45;;;;;;;;;;;;;;;21.89;62.18;101533.91;5064312;28;19932;-87
2023/06/01 08:11:11;;;;;;;;;;;;;;;21.91;62.21;101532.16;5063688;28;20000;-85
2023/06/01 08:13:36;;;;;;;;;;;;;;;21.94;62.26;101524.22;5063682;28;20417;-85
2023/06/01 08:16:02;;;;;;;;;;;;;;;21.92;62.39;101527.75;5060272;28;19971;-88
2023/06/01 08:18:28;;;;;;;;;;;;;;;21.95;62.25;101528.72;5054725;28;19913;-89
2023/06/01 08:20:55;;;;;;;;;;;;;;;21.98;62.16;101519.00;5031971;28;19987;-89
2023/06/01 08:23:24;;;;;;;;;;;;;;;21.98;62.31;101524.31;5064100;28;19917;-87
2023/06/01 08:25:50;;;;;;;;;;;;;;;21.96;62.29;101519.84;5063147;28;19924;-87
2023/06/01 08:28:16;;;;;;;;;;;;;;;21.96;62.37;101519.84;5032224;28;20356;-87
2023/06/01 08:30:41;;;;;;;;;;;;;;;21.98;62.44;101524.31;5031756;28;19913;-87
2023/06/01 08:33:07;;;;;;;;;;;;;;;21.97;62.28;101510.13;5064528;28;19913;-87
2023/06/01 08:35:33;;;;;;;;;;;;;;;22.00;62.18;101514.59;5047551;28;19936;-86
2023/06/01 08:38:02;;;;;;;;;;;;;;;21.96;62.29;101506.53;5055383;28;19915;-86
2023/06/01 08:40:28;;;;;;;;;;;;;;;22.01;62.24;101503.97;5030950;28;19971;-86
2023/06/01 08:42:59;;;;;;;;;;;;;;;22.03;62.34;101504.88;5031956;28;19913;-87
2023/06/01 08:45:25;;;;;;;;;;;;;;;22.03;62.35;101506.66;5032113;28;19917;-86
2023/06/01 08:47:52;;;;;;;;;;;;;;;22.03;62.47;101507.56;5063502;28;19952;-86
2023/06/01 08:50:18;;;;;;;;;;;;;;;22.04;62.43;101501.38;5063792;28;20306;-86
2023/06/01 08:52:44;;;;;;;;;;;;;;;22.06;62.50;101504.09;5064155;28;19913;-86
2023/06/01 08:55:09;;;;;;;;;;;;;;;22.06;62.60;101506.75;5063394;28;19917;-86
2023/06/01 08:57:35;;;;;;;;;;;;;;;22.05;62.66;101505.81;5031778;28;19920;-85
2023/06/01 09:00:00;;;;;;;;;;;;;;;22.05;62.58;101507.59;5031590;28;20309;-86
2023/06/01 09:02:27;;;;;;;;;;;;;;;22.06;62.25;101504.09;5031883;28;20059;-85
2023/06/01 09:04:52;;;;;;;;;;;;;;;22.07;61.94;101500.53;5031338;28;19920;-85
2023/06/01 09:07:18;;;;;;;;;;;;;;;22.06;61.96;101504.09;5030468;28;19913;-86
2023/06/01 09:09:44;;;;;;;;;;;;;;;22.08;61.74;101503.22;5062874;28;19925;-86
2023/06/01 09:12:18;;;;;;;;;;;;;;;22.08;61.43;101495.25;5063321;28;20394;-86
2023/06/01 09:14:44;;;;;;;;;;;;;;;22.07;61.42;101495.22;5031045;28;19917;-86
2023/06/01 09:17:14;;;;;;;;;;;;;;;22.06;61.62;101499.66;5046848;28;20003;-85
2023/06/01 09:19:46;;;;;;;;;;;;;;;22.04;61.65;101492.50;5049716;28;19978;-85
2023/06/01 09:22:14;;;;;;;;;;;;;;;22.12;60.18;101491.78;5031176;28;20433;-85
2023/06/01 09:24:42;;;;;;;;;;;;;;;22.11;60.51;101499.72;5046291;28;19921;-85
2023/06/01 09:27:08;;;;;;;;;;;;;;;22.15;61.08;101501.56;5046003;28;19912;-85
2023/06/01 09:29:33;;;;;;;;;;;;;;;22.13;61.30;101500.66;5063221;28;20374;-85
2023/06/01 09:31:59;;;;;;;;;;;;;;;22.14;61.93;101498.03;5031304;28;20378;-85
2023/06/01 09:34:25;;;;;;;;;;;;;;;22.15;61.90;101494.47;5063547;28;20302;-85
2023/06/01 09:36:51;;;;;;;;;;;;;;;22.17;62.08;101498.06;5062978;28;20755;-85
2023/06/01 09:39:17;;;;;;;;;;;;;;;22.19;62.49;101503.44;5063224;28;19917;-85
2023/06/01 09:41:46;;;;;;;;;;;;;;;22.22;62.87;101502.56;5063371;28;20322;-86
2023/06/01 09:44:12;;;;;;;;;;;;;;;22.21;63.13;101499.03;5031079;28;19959;-86
2023/06/01 09:46:47;;;;;;;;;;;;;;;22.23;63.56;101494.66;5062762;28;19945;-86
2023/06/01 09:49:18;;;;;;;;;;;;;;;22.25;63.22;101502.69;5062632;28;20397;-86
2023/06/01 09:51:43;;;;;;;;;;;;;;;22.24;63.02;101499.09;5064620;28;19920;-86
2023/06/01 09:54:09;;;;;;;;;;;;;;;22.26;62.84;101493.81;5053311;28;19917;-86
2023/06/01 09:56:44;;;;;;;;;;;;;;;22.28;63.06;101500.06;5029609;28;19917;-85
2023/06/01 09:59:09;;;;;;;;;;;;;;;22.29;63.83;101497.44;5069563;28;20025;-86
2023/06/01 10:01:35;;;;;;;;;;;;;;;22.29;63.33;101497.44;5039584;28;19972;-86
2023/06/01 10:04:00;;;;;;;;;;;;;;;22.31;63.62;101494.81;5034268;28;19917;-86
2023/06/01 10:06:28;;;;;;;;;;;;;;;22.32;64.12;101489.50;5049820;28;20404;-85
2023/06/01 10:08:53;;;;;;;;;;;;;;;22.33;63.51;101482.41;5034210;28;19920;-86
2023/06/01 10:11:19;;;;;;;;;;;;;;;22.34;63.29;101485.09;5032223;28;20119;-86
2023/06/01 10:13:44;;;;;;;;;;;;;;;22.34;63.41;101481.53;5065988;28;19913;-86
2023/06/01 10:16:12;;;;;;;;;;;;;;;22.34;63.53;101474.44;5052527;28;19921;-86
2023/06/01 10:18:37;;;;;;;;;;;;;;;22.38;64.11;101469.19;5065613;28;19948;-86
2023/06/01 10:21:06;;;;;;;;;;;;;;;22.40;64.26;101475.44;5066087;28;19960;-86
2023/06/01 10:23:31;;;;;;;;;;;;;;;22.40;63.58;101470.13;5065864;28;19920;-86
2023/06/01 10:25:57;;;;;;;;;;;;;;;22.42;63.35;101471.03;5066048;28;19991;-85
2023/06/01 10:28:23;;;;;;;;;;;;;;;22.45;64.57;101466.63;5066198;28;19917;-85
2023/06/01 10:31:09;;;;;;;;;;;;;;;22.46;63.79;101472.88;5065772;28;19962;-87
2023/06/01 10:33:53;;;;;;;;;;;;;;;22.48;63.68;101472.03;5033729;28;20004;-85
2023/06/01 10:36:18;;;;;;;;;;;;;;;22.48;63.96;101463.13;5039515;28;20489;-85
2023/06/01 10:38:44;;;;;;;;;;;;;;;22.50;64.29;101466.72;5030770;28;19927;-85
2023/06/01 10:41:26;;;;;;;;;;;;;;;22.48;64.34;101461.38;5034046;28;20421;-86
2023/06/01 10:43:51;;;;;;;;;;;;;;;22.49;64.08;101459.63;5065400;28;19971;-86
2023/06/01 10:46:36;;;;;;;;;;;;;;;22.49;64.03;101465.81;5033080;28;20409;-85
2023/06/01 10:49:01;;;;;;;;;;;;;;;22.50;63.80;101464.06;5048094;28;20020;-85
2023/06/01 10:51:28;;;;;;;;;;;;;;;22.51;63.93;101458.75;5048992;28;19952;-86
2023/06/01 10:53:54;;;;;;;;;;;;;;;22.53;64.61;101456.13;5033663;28;20006;-86
2023/06/01 10:56:23;;;;;;;;;;;;;;;22.55;64.46;101457.94;5052931;28;20415;-86
2023/06/01 10:59:07;;;;;;;;;;;;;;;22.56;64.42;101461.50;5052285;28;20393;-85
2023/06/01 11:01:33;;;;;;;;;;;;;;;22.59;64.21;101456.22;5030582;28;20424;-86
2023/06/01 11:03:58;;;;;;;;;;;;;;;22.58;64.32;101449.09;5055601;28;19917;-86
2023/06/01 11:06:31;;;;;;;;;;;;;;;22.59;64.33;101450.03;5044117;28;19921;-87
2023/06/01 11:08:58;;;;;;;;;;;;;;;22.62;64.30;101444.72;5048070;28;19932;-86
2023/06/01 11:11:24;;;;;;;;;;;;;;;22.64;63.88;101453.63;5040454;28;19929;-84
2023/06/01 11:14:05;;;;;;;;;;;;;;;22.67;64.51;101446.59;5064973;28;19917;-87
2023/06/01 11:16:31;;;;;;;;;;;;;;;22.65;64.40;101445.69;5052862;28;20424;-85
2023/06/01 11:19:02;;;;;;;;;;;;;;;22.67;64.29;101438.63;5062753;28;19917;-86
2023/06/01 11:21:29;;;;;;;;;;;;;;;22.67;64.24;101435.03;5027370;28;19925;-85
2023/06/01 11:23:55;;;;;;;;;;;;;;;22.69;64.39;101425.28;5029927;28;19921;-86
2023/06/01 11:26:21;;;;;;;;;;;;;;;22.70;64.38;101428.00;5026866;28;19982;-85
2023/06/01 11:28:47;;;;;;;;;;;;;;;22.72;64.11;101425.34;5061511;28;20365;-86
2023/06/01 11:31:13;;;;;;;;;;;;;;;22.72;63.87;101425.34;5029249;28;19921;-86
2023/06/01 11:33:40;;;;;;;;;;;;;;;22.71;64.05;101421.81;5046269;28;19917;-86
2023/06/01 11:36:06;;;;;;;;;;;;;;;22.72;64.28;101418.25;5031559;28;20384;-86
2023/06/01 11:38:35;;;;;;;;;;;;;;;22.74;64.37;101418.28;5062525;28;20390;-86
2023/06/01 11:41:03;;;;;;;;;;;;;;;22.76;64.64;101417.44;5059003;28;19932;-86
2023/06/01 11:43:32;;;;;;;;;;;;;;;22.77;64.77;101420.97;5059658;28;20310;-87
2023/06/01 11:46:00;;;;;;;;;;;;;;;22.80;65.18;101409.50;5066131;28;19917;-87
2023/06/01 11:48:26;;;;;;;;;;;;;;;22.81;65.30;101412.16;5031070;28;19917;-85
2023/06/01 11:50:51;;;;;;;;;;;;;;;22.83;65.73;101407.75;5035476;28;19923;-86
2023/06/01 11:53:17;;;;;;;;;;;;;;;22.85;65.86;101405.13;5031730;28;20012;-87
2023/06/01 11:56:08;;;;;;;;;;;;;;;22.85;66.25;101400.69;5065017;28;20374;-85
2023/06/01 11:58:34;;;;;;;;;;;;;;;22.87;67.65;101403.38;5029964;28;19917;-86
2023/06/01 12:01:00;;;;;;;;;;;;;;;22.85;68.33;101397.13;5044544;28;19923;-86
2023/06/01 12:03:25;;;;;;;;;;;;;;;22.86;67.69;101399.81;5048021;28;20417;-87
2023/06/01 12:05:51;;;;;;;;;;;;;;;22.88;68.59;101394.50;5026416;28;20012;-86
2023/06/01 12:08:18;;;;;;;;;;;;;;;22.91;67.68;101395.44;5029780;28;19914;-87
2023/06/01 12:10:51;;;;;;;;;;;;;;;22.95;68.41;101393.72;5060953;28;19979;-91
2023/06/01 12:13:17;;;;;;;;;;;;;;;22.98;65.66;101386.66;5060270;28;20375;-88
2023/06/01 12:15:44;;;;;;;;;;;;;;;23.00;67.02;101385.78;5059209;28;19924;-88
2023/06/01 12:18:09;;;;;;;;;;;;;;;23.00;66.89;101385.78;5027855;28;19948;-87
2023/06/01 12:20:37;;;;;;;;;;;;;;;22.98;66.57;101381.31;5043848;28;19956;-88
2023/06/01 12:23:19;;;;;;;;;;;;;;;23.02;66.77;101376.97;5027629;28;20393;-88
2023/06/01 12:25:53;;;;;;;;;;;;;;;23.04;66.79;101379.66;5029511;28;19925;-88
2023/06/01 12:28:19;;;;;;;;;;;;;;;23.03;67.20;101370.78;5025153;28;19991;-86
2023/06/01 12:30:46;;;;;;;;;;;;;;;23.04;66.75;101377.88;5054586;28;19979;-86
2023/06/01 12:33:33;;;;;;;;;;;;;;;23.05;66.75;101377.03;5061417;28;19917;-88
2023/06/01 12:35:59;;;;;;;;;;;;;;;23.08;66.40;101376.16;5040940;28;20405;-88
2023/06/01 12:38:26;;;;;;;;;;;;;;;23.07;66.60;101371.69;5038281;28;19914;-87
2023/06/01 12:41:11;;;;;;;;;;;;;;;23.10;66.55;101369.09;5028357;28;19913;-88
2023/06/01 12:43:37;;;;;;;;;;;;;;;23.09;66.58;101368.19;5051580;28;20302;-89